Foz Da Nazare — CUPD — position and weather

sailwx.info

Track history (hours):
 
Tides and Currents Weather Stations Pressure Air Temp Water Temp Dewpoint Dewpoint Depression Visibility Wind Speed Wind Dir Waves Ship Positions

Foz Da Nazare

Last reported at 2017-Dec-17 20:26 UTC. Time now 2017-Dec-18 06:58 UTC.
Position N 39°12' W 009°27'.

Length 34 m.

MMSI: 263470000.

Date/timePositionNaut miles runAvg speedWind from/ knotsBaromVisibWave heightAir tempDewpointWater temp
2017-Dec-17 20:26N 39°12' W 009°27'410.6
2017-Dec-17 20:00N 39°08' W 009°29'510.5
2017-Dec-17 19:30N 39°03' W 009°31'510.6
2017-Dec-17 19:01N 38°58' W 009°33'11 0.3
2017-Dec-16 08:31N 38°48' W 009°37'0 3.6
2017-Dec-16 08:30N 38°47' W 009°37'1 2.5
2017-Dec-16 08:01N 38°47' W 009°39'1 1.6
2017-Dec-16 07:30N 38°48' W 009°39'2 3.5
2017-Dec-16 07:00N 38°50' W 009°38'2 3.5
2017-Dec-16 06:30N 38°51' W 009°37'2 3.6
2017-Dec-16 06:00N 38°53' W 009°36'2 3.7
2017-Dec-16 05:30N 38°55' W 009°35'2 3.9
2017-Dec-16 05:00N 38°56' W 009°34'4 7.5
2017-Dec-16 04:30N 38°60' W 009°32'611.3
2017-Dec-16 04:00N 39°05' W 009°30'611.2
2017-Dec-16 03:31N 39°10' W 009°27'24 1.6
2017-Dec-15 11:53N 38°47' W 009°38'0 0.1
2017-Dec-15 11:31N 38°47' W 009°38'2 3.7
2017-Dec-15 11:00N 38°49' W 009°39'2 3.8
2017-Dec-15 10:30N 38°51' W 009°38'2 3.8
2017-Dec-15 10:00N 38°52' W 009°37'2 3.8
2017-Dec-15 09:31N 38°54' W 009°36'2 3.7
2017-Dec-15 09:00N 38°55' W 009°34'2 4.0
2017-Dec-15 08:30N 38°57' W 009°33'0 0.8
2017-Dec-15 08:00N 38°57' W 009°33'2 3.9
2017-Dec-15 07:30N 38°55' W 009°34'2 3.8
2017-Dec-15 07:00N 38°54' W 009°36'2 3.8
2017-Dec-15 06:30N 38°52' W 009°37'2 3.7
2017-Dec-15 06:00N 38°50' W 009°38'2 3.5
2017-Dec-15 05:30N 38°49' W 009°39'1 2.6
2017-Dec-15 05:00N 38°47' W 009°38'0 0.6
2017-Dec-15 04:31N 38°48' W 009°38'1 1.1
2017-Dec-15 04:00N 38°48' W 009°38'5 3.6
2017-Dec-15 02:30N 38°53' W 009°36'2 1.1
2017-Dec-15 01:00N 38°52' W 009°35'0 0.9
2017-Dec-15 00:30N 38°51' W 009°36'10 1.6
2017-Dec-14 18:31N 39°01' W 009°35'2 4.1
2017-Dec-14 18:01N 39°02' W 009°38'2 4.2
2017-Dec-14 17:30N 39°03' W 009°40'16 1.6
2017-Dec-14 07:29N 39°03' W 010°00'1 1.1
2017-Dec-14 07:00N 39°03' W 009°60'2 3.6
2017-Dec-14 06:26N 39°02' W 009°57'2 3.3
2017-Dec-14 05:58N 39°00' W 009°57'2 3.8
2017-Dec-14 05:30N 38°59' W 009°57'2 3.8
2017-Dec-14 05:00N 38°57' W 009°58'4 4.4
2017-Dec-14 04:02N 38°59' W 009°53'211.3
2017-Dec-14 03:51N 39°00' W 009°51'811.4
2017-Dec-14 03:11N 39°05' W 009°44'211.2
2017-Dec-14 02:58N 39°07' W 009°42'12 0.4
2017-Dec-12 21:54N 38°57' W 009°34'2 4.3
2017-Dec-12 21:30N 38°57' W 009°36'2 3.2
2017-Dec-12 21:00N 38°58' W 009°38'2 3.6
2017-Dec-12 20:30N 38°59' W 009°39'1 2.9
2017-Dec-12 20:00N 38°58' W 009°41'2 3.4
2017-Dec-12 19:30N 38°56' W 009°41'1 2.6
2017-Dec-12 19:00N 38°55' W 009°42'1 2.9
2017-Dec-12 18:30N 38°54' W 009°43'2 3.8
2017-Dec-12 18:00N 38°52' W 009°44'2 3.6
2017-Dec-12 17:30N 38°51' W 009°42'2 3.6
2017-Dec-12 17:00N 38°50' W 009°40'2 3.9
2017-Dec-12 16:30N 38°48' W 009°39'1 1.5
2017-Dec-12 16:00N 38°49' W 009°39'14 3.1
2017-Dec-12 11:24N 39°03' W 009°42'3 7.5
2017-Dec-12 11:00N 39°05' W 009°45'611.1
2017-Dec-12 10:30N 39°09' W 009°49'  
Track history (hours):
 
Tides and Currents Weather Stations Pressure Air Temp Water Temp Dewpoint Dewpoint Depression Visibility Wind Speed Wind Dir Waves Ship Positions

Foz Da Nazare

Last reported at 2017-Dec-17 20:26 UTC. Time now 2017-Dec-18 06:58 UTC.
Position N 39°12' W 009°27'.

Length 34 m.

MMSI: 263470000.

Date/timePositionNaut miles runAvg speedWind from/ knotsBaromVisibWave heightAir tempDewpointWater temp
2017-Dec-17 20:26N 39°12' W 009°27'410.6
2017-Dec-17 20:00N 39°08' W 009°29'510.5
2017-Dec-17 19:30N 39°03' W 009°31'510.6
2017-Dec-17 19:01N 38°58' W 009°33'11 0.3
2017-Dec-16 08:31N 38°48' W 009°37'0 3.6
2017-Dec-16 08:30N 38°47' W 009°37'1 2.5
2017-Dec-16 08:01N 38°47' W 009°39'1 1.6
2017-Dec-16 07:30N 38°48' W 009°39'2 3.5
2017-Dec-16 07:00N 38°50' W 009°38'2 3.5
2017-Dec-16 06:30N 38°51' W 009°37'2 3.6
2017-Dec-16 06:00N 38°53' W 009°36'2 3.7
2017-Dec-16 05:30N 38°55' W 009°35'2 3.9
2017-Dec-16 05:00N 38°56' W 009°34'4 7.5
2017-Dec-16 04:30N 38°60' W 009°32'611.3
2017-Dec-16 04:00N 39°05' W 009°30'611.2
2017-Dec-16 03:31N 39°10' W 009°27'24 1.6
2017-Dec-15 11:53N 38°47' W 009°38'0 0.1
2017-Dec-15 11:31N 38°47' W 009°38'2 3.7
2017-Dec-15 11:00N 38°49' W 009°39'2 3.8
2017-Dec-15 10:30N 38°51' W 009°38'2 3.8
2017-Dec-15 10:00N 38°52' W 009°37'2 3.8
2017-Dec-15 09:31N 38°54' W 009°36'2 3.7
2017-Dec-15 09:00N 38°55' W 009°34'2 4.0
2017-Dec-15 08:30N 38°57' W 009°33'0 0.8
2017-Dec-15 08:00N 38°57' W 009°33'2 3.9
2017-Dec-15 07:30N 38°55' W 009°34'2 3.8
2017-Dec-15 07:00N 38°54' W 009°36'2 3.8
2017-Dec-15 06:30N 38°52' W 009°37'2 3.7
2017-Dec-15 06:00N 38°50' W 009°38'2 3.5
2017-Dec-15 05:30N 38°49' W 009°39'1 2.6
2017-Dec-15 05:00N 38°47' W 009°38'0 0.6
2017-Dec-15 04:31N 38°48' W 009°38'1 1.1
2017-Dec-15 04:00N 38°48' W 009°38'5 3.6
2017-Dec-15 02:30N 38°53' W 009°36'2 1.1
2017-Dec-15 01:00N 38°52' W 009°35'0 0.9
2017-Dec-15 00:30N 38°51' W 009°36'10 1.6
2017-Dec-14 18:31N 39°01' W 009°35'2 4.1
2017-Dec-14 18:01N 39°02' W 009°38'2 4.2
2017-Dec-14 17:30N 39°03' W 009°40'16 1.6
2017-Dec-14 07:29N 39°03' W 010°00'1 1.1
2017-Dec-14 07:00N 39°03' W 009°60'2 3.6
2017-Dec-14 06:26N 39°02' W 009°57'2 3.3
2017-Dec-14 05:58N 39°00' W 009°57'2 3.8
2017-Dec-14 05:30N 38°59' W 009°57'2 3.8
2017-Dec-14 05:00N 38°57' W 009°58'4 4.4
2017-Dec-14 04:02N 38°59' W 009°53'211.3
2017-Dec-14 03:51N 39°00' W 009°51'811.4
2017-Dec-14 03:11N 39°05' W 009°44'211.2
2017-Dec-14 02:58N 39°07' W 009°42'12 0.4
2017-Dec-12 21:54N 38°57' W 009°34'2 4.3
2017-Dec-12 21:30N 38°57' W 009°36'2 3.2
2017-Dec-12 21:00N 38°58' W 009°38'2 3.6
2017-Dec-12 20:30N 38°59' W 009°39'1 2.9
2017-Dec-12 20:00N 38°58' W 009°41'2 3.4
2017-Dec-12 19:30N 38°56' W 009°41'1 2.6
2017-Dec-12 19:00N 38°55' W 009°42'1 2.9
2017-Dec-12 18:30N 38°54' W 009°43'2 3.8
2017-Dec-12 18:00N 38°52' W 009°44'2 3.6
2017-Dec-12 17:30N 38°51' W 009°42'2 3.6
2017-Dec-12 17:00N 38°50' W 009°40'2 3.9
2017-Dec-12 16:30N 38°48' W 009°39'1 1.5
2017-Dec-12 16:00N 38°49' W 009°39'14 3.1
2017-Dec-12 11:24N 39°03' W 009°42'3 7.5
2017-Dec-12 11:00N 39°05' W 009°45'611.1
2017-Dec-12 10:30N 39°09' W 009°49'  

Dump ship's entire track history